<?xml version="1.0" encoding="utf-8"?>
<gpx xmlns:xsi="http://www.w3.org/2001/XMLSchema-instance" xmlns:xsd="http://www.w3.org/2001/XMLSchema" version="1.1" creator="Shapelink.com" xmlns="http://www.topografix.com/GPX/1/1" xmlns:gpxtpx="http://www.garmin.com/xmlschemas/TrackPointExtension/v1">
  <metadata>
    <name>Løping 1.97 km, 2012-07-17</name>
    <desc></desc>
    <author><name>Mikael Blom</name></author> 
    <time>2012-07-17T09:50:06Z</time>
  </metadata>
  <trk>
    <name>Løping 1.97 km, 2012-07-17</name>
    <trkseg>
      <trkpt lat="59.9788698" lon="17.7393197">
        <ele>34.7449</ele>
        <time>2012-07-17T09:50:06Z</time>
      </trkpt>
      <trkpt lat="59.9786972" lon="17.7393445">
        <ele>32.3416</ele>
        <time>2012-07-17T09:50:13Z</time>
      </trkpt>
      <trkpt lat="59.9785313" lon="17.7393264">
        <ele>30.4188</ele>
        <time>2012-07-17T09:50:19Z</time>
      </trkpt>
      <trkpt lat="59.9783943" lon="17.7393051">
        <ele>27.5349</ele>
        <time>2012-07-17T09:50:25Z</time>
      </trkpt>
      <trkpt lat="59.9782461" lon="17.7392212">
        <ele>26.0929</ele>
        <time>2012-07-17T09:50:31Z</time>
      </trkpt>
      <trkpt lat="59.9781005" lon="17.7391994">
        <ele>27.5349</ele>
        <time>2012-07-17T09:50:36Z</time>
      </trkpt>
      <trkpt lat="59.9779085" lon="17.7391247">
        <ele>26.5736</ele>
        <time>2012-07-17T09:50:43Z</time>
      </trkpt>
      <trkpt lat="59.977741" lon="17.7390464">
        <ele>27.5349</ele>
        <time>2012-07-17T09:50:50Z</time>
      </trkpt>
      <trkpt lat="59.9776054" lon="17.7389734">
        <ele>26.0929</ele>
        <time>2012-07-17T09:50:56Z</time>
      </trkpt>
      <trkpt lat="59.9774492" lon="17.7389921">
        <ele>26.0929</ele>
        <time>2012-07-17T09:51:02Z</time>
      </trkpt>
      <trkpt lat="59.9773091" lon="17.7390545">
        <ele>27.0543</ele>
        <time>2012-07-17T09:51:08Z</time>
      </trkpt>
      <trkpt lat="59.977153" lon="17.7391578">
        <ele>26.0929</ele>
        <time>2012-07-17T09:51:14Z</time>
      </trkpt>
      <trkpt lat="59.9770682" lon="17.7392415">
        <ele>26.0929</ele>
        <time>2012-07-17T09:51:19Z</time>
      </trkpt>
      <trkpt lat="59.9769672" lon="17.7392987">
        <ele>24.651</ele>
        <time>2012-07-17T09:51:24Z</time>
      </trkpt>
      <trkpt lat="59.9768464" lon="17.7393678">
        <ele>22.2476</ele>
        <time>2012-07-17T09:51:30Z</time>
      </trkpt>
      <trkpt lat="59.9767054" lon="17.7394236">
        <ele>19.8444</ele>
        <time>2012-07-17T09:51:36Z</time>
      </trkpt>
      <trkpt lat="59.9765838" lon="17.7395667">
        <ele>16.9604</ele>
        <time>2012-07-17T09:51:42Z</time>
      </trkpt>
      <trkpt lat="59.9764596" lon="17.7397507">
        <ele>18.4023</ele>
        <time>2012-07-17T09:51:48Z</time>
      </trkpt>
      <trkpt lat="59.9763292" lon="17.73998">
        <ele>26.5736</ele>
        <time>2012-07-17T09:51:54Z</time>
      </trkpt>
      <trkpt lat="59.9762352" lon="17.7402493">
        <ele>29.9381</ele>
        <time>2012-07-17T09:52:00Z</time>
      </trkpt>
      <trkpt lat="59.9761441" lon="17.7405255">
        <ele>30.4188</ele>
        <time>2012-07-17T09:52:06Z</time>
      </trkpt>
      <trkpt lat="59.9760597" lon="17.7408094">
        <ele>33.7834</ele>
        <time>2012-07-17T09:52:13Z</time>
      </trkpt>
      <trkpt lat="59.9759954" lon="17.7410706">
        <ele>34.2642</ele>
        <time>2012-07-17T09:52:19Z</time>
      </trkpt>
      <trkpt lat="59.9759259" lon="17.741331">
        <ele>34.7449</ele>
        <time>2012-07-17T09:52:25Z</time>
      </trkpt>
      <trkpt lat="59.9758389" lon="17.7416505">
        <ele>32.3416</ele>
        <time>2012-07-17T09:52:32Z</time>
      </trkpt>
      <trkpt lat="59.9757734" lon="17.7419354">
        <ele>31.8607</ele>
        <time>2012-07-17T09:52:38Z</time>
      </trkpt>
      <trkpt lat="59.9756865" lon="17.7422504">
        <ele>29.4575</ele>
        <time>2012-07-17T09:52:45Z</time>
      </trkpt>
      <trkpt lat="59.9756327" lon="17.742472">
        <ele>31.8607</ele>
        <time>2012-07-17T09:52:50Z</time>
      </trkpt>
      <trkpt lat="59.9755924" lon="17.7426794">
        <ele>34.2642</ele>
        <time>2012-07-17T09:52:55Z</time>
      </trkpt>
      <trkpt lat="59.9754944" lon="17.7429742">
        <ele>36.1868</ele>
        <time>2012-07-17T09:53:02Z</time>
      </trkpt>
      <trkpt lat="59.9754141" lon="17.7432703">
        <ele>36.6675</ele>
        <time>2012-07-17T09:53:08Z</time>
      </trkpt>
      <trkpt lat="59.9753445" lon="17.7436243">
        <ele>34.7449</ele>
        <time>2012-07-17T09:53:15Z</time>
      </trkpt>
      <trkpt lat="59.9752929" lon="17.7438594">
        <ele>34.7449</ele>
        <time>2012-07-17T09:53:20Z</time>
      </trkpt>
      <trkpt lat="59.9752497" lon="17.7441387">
        <ele>35.2255</ele>
        <time>2012-07-17T09:53:26Z</time>
      </trkpt>
      <trkpt lat="59.9751898" lon="17.7443889">
        <ele>33.3029</ele>
        <time>2012-07-17T09:53:32Z</time>
      </trkpt>
      <trkpt lat="59.9751298" lon="17.7446155">
        <ele>33.3029</ele>
        <time>2012-07-17T09:53:37Z</time>
      </trkpt>
      <trkpt lat="59.9750572" lon="17.7448894">
        <ele>31.8607</ele>
        <time>2012-07-17T09:53:43Z</time>
      </trkpt>
      <trkpt lat="59.9749593" lon="17.7451962">
        <ele>32.3416</ele>
        <time>2012-07-17T09:53:50Z</time>
      </trkpt>
      <trkpt lat="59.9748748" lon="17.7454135">
        <ele>32.3416</ele>
        <time>2012-07-17T09:53:55Z</time>
      </trkpt>
      <trkpt lat="59.9747682" lon="17.7456978">
        <ele>32.8223</ele>
        <time>2012-07-17T09:54:03Z</time>
      </trkpt>
      <trkpt lat="59.9746732" lon="17.7459123">
        <ele>32.8223</ele>
        <time>2012-07-17T09:54:09Z</time>
      </trkpt>
      <trkpt lat="59.9745654" lon="17.7461131">
        <ele>31.8607</ele>
        <time>2012-07-17T09:54:15Z</time>
      </trkpt>
      <trkpt lat="59.9744528" lon="17.7462813">
        <ele>28.4962</ele>
        <time>2012-07-17T09:54:22Z</time>
      </trkpt>
      <trkpt lat="59.9743598" lon="17.7464078">
        <ele>26.5736</ele>
        <time>2012-07-17T09:54:27Z</time>
      </trkpt>
      <trkpt lat="59.9742212" lon="17.7466009">
        <ele>26.0929</ele>
        <time>2012-07-17T09:54:33Z</time>
      </trkpt>
      <trkpt lat="59.9740803" lon="17.7467905">
        <ele>26.5736</ele>
        <time>2012-07-17T09:54:39Z</time>
      </trkpt>
      <trkpt lat="59.9738814" lon="17.7470505">
        <ele>27.0543</ele>
        <time>2012-07-17T09:54:48Z</time>
      </trkpt>
      <trkpt lat="59.9737902" lon="17.7471705">
        <ele>27.0543</ele>
        <time>2012-07-17T09:54:53Z</time>
      </trkpt>
      <trkpt lat="59.9736615" lon="17.7473456">
        <ele>26.5736</ele>
        <time>2012-07-17T09:54:59Z</time>
      </trkpt>
      <trkpt lat="59.9735312" lon="17.7474456">
        <ele>27.0543</ele>
        <time>2012-07-17T09:55:05Z</time>
      </trkpt>
      <trkpt lat="59.9733644" lon="17.7476295">
        <ele>25.1317</ele>
        <time>2012-07-17T09:55:12Z</time>
      </trkpt>
      <trkpt lat="59.973224" lon="17.7477771">
        <ele>25.1317</ele>
        <time>2012-07-17T09:55:18Z</time>
      </trkpt>
      <trkpt lat="59.9730892" lon="17.747933">
        <ele>25.6123</ele>
        <time>2012-07-17T09:55:24Z</time>
      </trkpt>
      <trkpt lat="59.9729581" lon="17.7481299">
        <ele>25.6123</ele>
        <time>2012-07-17T09:55:30Z</time>
      </trkpt>
      <trkpt lat="59.9728255" lon="17.7483778">
        <ele>26.0929</ele>
        <time>2012-07-17T09:55:37Z</time>
      </trkpt>
      <trkpt lat="59.9727132" lon="17.7485717">
        <ele>26.0929</ele>
        <time>2012-07-17T09:55:42Z</time>
      </trkpt>
      <trkpt lat="59.9726256" lon="17.7487749">
        <ele>29.4575</ele>
        <time>2012-07-17T09:55:48Z</time>
      </trkpt>
      <trkpt lat="59.9725196" lon="17.7489736">
        <ele>29.4575</ele>
        <time>2012-07-17T09:55:54Z</time>
      </trkpt>
      <trkpt lat="59.9724343" lon="17.7491863">
        <ele>32.3416</ele>
        <time>2012-07-17T09:56:00Z</time>
      </trkpt>
      <trkpt lat="59.972335" lon="17.7494446">
        <ele>31.8607</ele>
        <time>2012-07-17T09:56:06Z</time>
      </trkpt>
      <trkpt lat="59.9722668" lon="17.7496596">
        <ele>29.4575</ele>
        <time>2012-07-17T09:56:12Z</time>
      </trkpt>
      <trkpt lat="59.972201" lon="17.7497583">
        <ele>30.8995</ele>
        <time>2012-07-17T09:56:15Z</time>
      </trkpt>
      <trkpt lat="59.972157" lon="17.7499341">
        <ele>30.8995</ele>
        <time>2012-07-17T09:56:19Z</time>
      </trkpt>
      <trkpt lat="59.9720185" lon="17.7502386">
        <ele>25.6123</ele>
        <time>2012-07-17T09:56:27Z</time>
      </trkpt>
      <trkpt lat="59.9719124" lon="17.7504382">
        <ele>24.1703</ele>
        <time>2012-07-17T09:56:32Z</time>
      </trkpt>
      <trkpt lat="59.9718251" lon="17.75062">
        <ele>23.209</ele>
        <time>2012-07-17T09:56:37Z</time>
      </trkpt>
      <trkpt lat="59.9717192" lon="17.7507773">
        <ele>23.6896</ele>
        <time>2012-07-17T09:56:42Z</time>
      </trkpt>
      <trkpt lat="59.9716138" lon="17.7509187">
        <ele>25.1317</ele>
        <time>2012-07-17T09:56:47Z</time>
      </trkpt>
      <trkpt lat="59.9715033" lon="17.7510717">
        <ele>24.1703</ele>
        <time>2012-07-17T09:56:52Z</time>
      </trkpt>
      <trkpt lat="59.9713934" lon="17.7512212">
        <ele>22.7283</ele>
        <time>2012-07-17T09:56:57Z</time>
      </trkpt>
      <trkpt lat="59.9712732" lon="17.7513431">
        <ele>23.209</ele>
        <time>2012-07-17T09:57:03Z</time>
      </trkpt>
      <trkpt lat="59.971168" lon="17.7514701">
        <ele>23.209</ele>
        <time>2012-07-17T09:57:08Z</time>
      </trkpt>
      <trkpt lat="59.9711525" lon="17.7515097">
        <ele>23.209</ele>
        <time>2012-07-17T09:57:09Z</time>
      </trkpt>
      <trkpt lat="59.9710402" lon="17.7516221">
        <ele>23.209</ele>
        <time>2012-07-17T09:57:14Z</time>
      </trkpt>
      <trkpt lat="59.9709132" lon="17.75179">
        <ele>30.4188</ele>
        <time>2012-07-17T09:57:21Z</time>
      </trkpt>
      <trkpt lat="59.9708194" lon="17.7519459">
        <ele>29.9381</ele>
        <time>2012-07-17T09:57:26Z</time>
      </trkpt>
      <trkpt lat="59.9707176" lon="17.7521257">
        <ele>28.4962</ele>
        <time>2012-07-17T09:57:31Z</time>
      </trkpt>
      <trkpt lat="59.9706209" lon="17.7522966">
        <ele>29.4575</ele>
        <time>2012-07-17T09:57:36Z</time>
      </trkpt>
      <trkpt lat="59.9705156" lon="17.7525361">
        <ele>29.9381</ele>
        <time>2012-07-17T09:57:42Z</time>
      </trkpt>
      <trkpt lat="59.9704467" lon="17.7527599">
        <ele>30.8995</ele>
        <time>2012-07-17T09:57:48Z</time>
      </trkpt>
      <trkpt lat="59.9703485" lon="17.7529873">
        <ele>31.3801</ele>
        <time>2012-07-17T09:57:54Z</time>
      </trkpt>
      <trkpt lat="59.9702535" lon="17.7532194">
        <ele>32.8223</ele>
        <time>2012-07-17T09:58:00Z</time>
      </trkpt>
      <trkpt lat="59.9701822" lon="17.7534202">
        <ele>31.3801</ele>
        <time>2012-07-17T09:58:05Z</time>
      </trkpt>
      <trkpt lat="59.9701221" lon="17.7535854">
        <ele>32.3416</ele>
        <time>2012-07-17T09:58:10Z</time>
      </trkpt>
      <trkpt lat="59.9699916" lon="17.7538969">
        <ele>32.3416</ele>
        <time>2012-07-17T09:58:18Z</time>
      </trkpt>
      <trkpt lat="59.9699011" lon="17.7540958">
        <ele>32.3416</ele>
        <time>2012-07-17T09:58:23Z</time>
      </trkpt>
      <trkpt lat="59.9698068" lon="17.754288">
        <ele>31.3801</ele>
        <time>2012-07-17T09:58:28Z</time>
      </trkpt>
      <trkpt lat="59.969715" lon="17.7544648">
        <ele>31.3801</ele>
        <time>2012-07-17T09:58:33Z</time>
      </trkpt>
      <trkpt lat="59.9696589" lon="17.7545682">
        <ele>31.3801</ele>
        <time>2012-07-17T09:58:36Z</time>
      </trkpt>
      <trkpt lat="59.9695817" lon="17.7547797">
        <ele>36.6675</ele>
        <time>2012-07-17T09:58:42Z</time>
      </trkpt>
      <trkpt lat="59.9694715" lon="17.7550065">
        <ele>36.6675</ele>
        <time>2012-07-17T09:58:48Z</time>
      </trkpt>
      <trkpt lat="59.9693596" lon="17.7552153">
        <ele>35.7061</ele>
        <time>2012-07-17T09:58:54Z</time>
      </trkpt>
      <trkpt lat="59.9692892" lon="17.7553464">
        <ele>34.7449</ele>
        <time>2012-07-17T09:58:58Z</time>
      </trkpt>
      <trkpt lat="59.9692662" lon="17.7552617">
        <ele>34.7449</ele>
        <time>2012-07-17T09:59:02Z</time>
      </trkpt>
      <trkpt lat="59.9692845" lon="17.7552223">
        <ele>33.7834</ele>
        <time>2012-07-17T09:59:03Z</time>
      </trkpt>
      <trkpt lat="59.9694042" lon="17.7549659">
        <ele>34.2642</ele>
        <time>2012-07-17T09:59:09Z</time>
      </trkpt>
      <trkpt lat="59.9695181" lon="17.7547573">
        <ele>34.7449</ele>
        <time>2012-07-17T09:59:15Z</time>
      </trkpt>
      <trkpt lat="59.9695943" lon="17.7545977">
        <ele>35.7061</ele>
        <time>2012-07-17T09:59:19Z</time>
      </trkpt>
      <trkpt lat="59.9696972" lon="17.7544344">
        <ele>34.7449</ele>
        <time>2012-07-17T09:59:24Z</time>
      </trkpt>
      <trkpt lat="59.9697858" lon="17.7542464">
        <ele>35.2255</ele>
        <time>2012-07-17T09:59:29Z</time>
      </trkpt>
      <trkpt lat="59.9698635" lon="17.754087">
        <ele>34.2642</ele>
        <time>2012-07-17T09:59:34Z</time>
      </trkpt>
      <trkpt lat="59.9699506" lon="17.7539037">
        <ele>34.2642</ele>
        <time>2012-07-17T09:59:39Z</time>
      </trkpt>
      <trkpt lat="59.970047" lon="17.7536818">
        <ele>34.7449</ele>
        <time>2012-07-17T09:59:45Z</time>
      </trkpt>
      <trkpt lat="59.970134" lon="17.7534753">
        <ele>34.2642</ele>
        <time>2012-07-17T09:59:50Z</time>
      </trkpt>
      <trkpt lat="59.9701983" lon="17.7532784">
        <ele>33.7834</ele>
        <time>2012-07-17T09:59:55Z</time>
      </trkpt>
      <trkpt lat="59.9702584" lon="17.7531006">
        <ele>33.3029</ele>
        <time>2012-07-17T10:00:00Z</time>
      </trkpt>
      <trkpt lat="59.9703467" lon="17.752906">
        <ele>33.7834</ele>
        <time>2012-07-17T10:00:05Z</time>
      </trkpt>
      <trkpt lat="59.9704284" lon="17.7526982">
        <ele>34.2642</ele>
        <time>2012-07-17T10:00:10Z</time>
      </trkpt>
      <trkpt lat="59.9704973" lon="17.7525061">
        <ele>34.2642</ele>
        <time>2012-07-17T10:00:14Z</time>
      </trkpt>
      <trkpt lat="59.9705801" lon="17.7523106">
        <ele>33.7834</ele>
        <time>2012-07-17T10:00:19Z</time>
      </trkpt>
      <trkpt lat="59.9706799" lon="17.7520724">
        <ele>35.2255</ele>
        <time>2012-07-17T10:00:25Z</time>
      </trkpt>
      <trkpt lat="59.9707841" lon="17.7519245">
        <ele>35.2255</ele>
        <time>2012-07-17T10:00:30Z</time>
      </trkpt>
      <trkpt lat="59.9708723" lon="17.751777">
        <ele>35.7061</ele>
        <time>2012-07-17T10:00:35Z</time>
      </trkpt>
      <trkpt lat="59.9710176" lon="17.7516545">
        <ele>34.2642</ele>
        <time>2012-07-17T10:00:41Z</time>
      </trkpt>
      <trkpt lat="59.9711178" lon="17.7515494">
        <ele>33.3029</ele>
        <time>2012-07-17T10:00:46Z</time>
      </trkpt>
      <trkpt lat="59.971204" lon="17.7514878">
        <ele>31.3801</ele>
        <time>2012-07-17T10:00:50Z</time>
      </trkpt>
      <trkpt lat="59.9712945" lon="17.7513618">
        <ele>29.9381</ele>
        <time>2012-07-17T10:00:55Z</time>
      </trkpt>
      <trkpt lat="59.9714195" lon="17.7512183">
        <ele>29.4575</ele>
        <time>2012-07-17T10:01:01Z</time>
      </trkpt>
      <trkpt lat="59.9715544" lon="17.7510402">
        <ele>29.9381</ele>
        <time>2012-07-17T10:01:08Z</time>
      </trkpt>
      <trkpt lat="59.9716685" lon="17.750889">
        <ele>29.4575</ele>
        <time>2012-07-17T10:01:14Z</time>
      </trkpt>
      <trkpt lat="59.9717628" lon="17.7507244">
        <ele>30.4188</ele>
        <time>2012-07-17T10:01:19Z</time>
      </trkpt>
      <trkpt lat="59.9718833" lon="17.7505128">
        <ele>29.9381</ele>
        <time>2012-07-17T10:01:25Z</time>
      </trkpt>
      <trkpt lat="59.9720014" lon="17.7502947">
        <ele>29.9381</ele>
        <time>2012-07-17T10:01:31Z</time>
      </trkpt>
      <trkpt lat="59.9720847" lon="17.7501253">
        <ele>29.4575</ele>
        <time>2012-07-17T10:01:36Z</time>
      </trkpt>
      <trkpt lat="59.9721724" lon="17.7499346">
        <ele>29.4575</ele>
        <time>2012-07-17T10:01:41Z</time>
      </trkpt>
      <trkpt lat="59.9722458" lon="17.7497481">
        <ele>30.4188</ele>
        <time>2012-07-17T10:01:46Z</time>
      </trkpt>
      <trkpt lat="59.9723081" lon="17.749603">
        <ele>30.4188</ele>
        <time>2012-07-17T10:01:50Z</time>
      </trkpt>
    </trkseg>
  </trk>
</gpx>